PWSweather.com
Personal Weather Stations
Station Observations
KOHCLEVE171
Cleveland, OH

Cleveland, OH

Lat: 41.48646164, Lon: -81.46408081

Elevation: 1059

Station Type:

High Low Average
Temperature 39.0°F3.9°C 31.8°F-0.1°C 35.2°F1.8°C
Dew Point 36.3°F2.4°C 29.3°F-1.5°C 32.1°F0.1°C
Winds 8.5 mph 13.7 kmh Calm Calm 2.0 mph SE3.2 kmh SE
Wind Gusts 18.8 mph30.3 kmh -- 4.0 mph6.4 kmh
Humidity 93% 82% 88%
Pressure 30.35 in1027.8 mb 29.94 in1013.9 mb -
Precipitation 0.01 in0.3 mm - -
Hour Temp Dew Point Humidity Winds Wind Gusts Pressure Precip Precip Rate Daily Precip Total
12:04 AM 33.3°F0.7°C 30.6°F-0.8°C 90% 1.6 mph NE2.6 kmh NE 1.8 mph2.9 kmh 30.29 in1025.7 mb 0.00 in0.0 mm 0.00 in0.0 mm 0.00 in0.0 mm
12:09 AM 33.4°F0.8°C 30.7°F-0.7°C 90% 1.1 mph ENE1.8 kmh ENE 2.0 mph3.2 kmh 30.29 in1025.7 mb 0.00 in0.0 mm 0.00 in0.0 mm 0.00 in0.0 mm
12:14 AM 33.4°F0.8°C 30.7°F-0.7°C 90% 1.6 mph NNE2.6 kmh NNE 2.0 mph3.2 kmh 30.29 in1025.7 mb 0.00 in0.0 mm 0.00 in0.0 mm 0.00 in0.0 mm
12:19 AM 33.3°F0.7°C 30.6°F-0.8°C 90% 2.0 mph NE3.2 kmh NE 2.7 mph4.3 kmh 30.29 in1025.7 mb 0.00 in0.0 mm 0.00 in0.0 mm 0.00 in0.0 mm
12:24 AM 33.3°F0.7°C 30.4°F-0.9°C 89% 1.6 mph N2.6 kmh N 2.5 mph4.0 kmh 30.29 in1025.7 mb 0.00 in0.0 mm 0.00 in0.0 mm 0.00 in0.0 mm
12:29 AM 33.1°F0.6°C 30.4°F-0.9°C 90% 1.1 mph NE1.8 kmh NE 1.6 mph2.6 kmh 30.29 in1025.7 mb 0.00 in0.0 mm 0.00 in0.0 mm 0.00 in0.0 mm
12:34 AM 32.9°F0.5°C 30.2°F-1.0°C 90% 1.3 mph N2.1 kmh N 1.8 mph2.9 kmh 30.29 in1025.7 mb 0.00 in0.0 mm 0.00 in0.0 mm 0.00 in0.0 mm
12:39 AM 32.7°F0.4°C 30.2°F-1.0°C 90% 1.8 mph N2.9 kmh N 2.2 mph3.5 kmh 30.29 in1025.7 mb 0.00 in0.0 mm 0.00 in0.0 mm 0.00 in0.0 mm
12:44 AM 32.9°F0.5°C 30.2°F-1.0°C 90% 1.1 mph NE1.8 kmh NE 1.8 mph2.9 kmh 30.29 in1025.7 mb 0.00 in0.0 mm 0.00 in0.0 mm 0.00 in0.0 mm
12:49 AM 32.7°F0.4°C 30.2°F-1.0°C 90% 1.3 mph NNE2.1 kmh NNE 2.2 mph3.5 kmh 30.29 in1025.7 mb 0.00 in0.0 mm 0.00 in0.0 mm 0.00 in0.0 mm
12:54 AM 32.7°F0.4°C 30.2°F-1.0°C 90% 1.6 mph NNE2.6 kmh NNE 2.2 mph3.5 kmh 30.29 in1025.7 mb 0.00 in0.0 mm 0.00 in0.0 mm 0.00 in0.0 mm
01:04 AM 32.7°F0.4°C 30.2°F-1.0°C 90% 0.7 mph E1.1 kmh E 1.1 mph1.8 kmh 30.29 in1025.7 mb 0.00 in0.0 mm 0.00 in0.0 mm 0.00 in0.0 mm
01:09 AM 32.9°F0.5°C 30.2°F-1.0°C 90% 1.1 mph ENE1.8 kmh ENE 1.6 mph2.6 kmh 30.29 in1025.7 mb 0.00 in0.0 mm 0.00 in0.0 mm 0.00 in0.0 mm
01:14 AM 32.9°F0.5°C 30.2°F-1.0°C 90% 1.1 mph NNE1.8 kmh NNE 1.6 mph2.6 kmh 30.29 in1025.7 mb 0.00 in0.0 mm 0.00 in0.0 mm 0.00 in0.0 mm
01:19 AM 32.9°F0.5°C 30.6°F-0.8°C 91% 1.8 mph NE2.9 kmh NE 2.7 mph4.3 kmh 30.29 in1025.7 mb 0.00 in0.0 mm 0.00 in0.0 mm 0.00 in0.0 mm
01:24 AM 33.1°F0.6°C 30.4°F-0.9°C 90% 1.6 mph ENE2.6 kmh ENE 2.0 mph3.2 kmh 30.29 in1025.7 mb 0.00 in0.0 mm 0.00 in0.0 mm 0.00 in0.0 mm
01:29 AM 33.1°F0.6°C 30.4°F-0.9°C 90% 1.8 mph NE2.9 kmh NE 2.7 mph4.3 kmh 30.29 in1025.7 mb 0.00 in0.0 mm 0.00 in0.0 mm 0.00 in0.0 mm
01:34 AM 33.1°F0.6°C 30.4°F-0.9°C 90% 1.8 mph NE2.9 kmh NE 2.2 mph3.5 kmh 30.29 in1025.7 mb 0.00 in0.0 mm 0.00 in0.0 mm 0.00 in0.0 mm
01:39 AM 33.1°F0.6°C 30.4°F-0.9°C 90% 0.7 mph NE1.1 kmh NE 1.3 mph2.1 kmh 30.30 in1026.1 mb 0.00 in0.0 mm 0.00 in0.0 mm 0.00 in0.0 mm
01:44 AM 33.1°F0.6°C 30.4°F-0.9°C 90% 1.6 mph NE2.6 kmh NE 2.0 mph3.2 kmh 30.29 in1025.7 mb 0.00 in0.0 mm 0.00 in0.0 mm 0.00 in0.0 mm
01:49 AM 33.1°F0.6°C 30.4°F-0.9°C 90% 1.6 mph NE2.6 kmh NE 2.2 mph3.5 kmh 30.29 in1025.7 mb 0.00 in0.0 mm 0.00 in0.0 mm 0.00 in0.0 mm
01:54 AM 33.1°F0.6°C 30.4°F-0.9°C 90% 0.7 mph N1.1 kmh N 1.6 mph2.6 kmh 30.30 in1026.1 mb 0.00 in0.0 mm 0.00 in0.0 mm 0.00 in0.0 mm
01:59 AM 33.1°F0.6°C 30.4°F-0.9°C 90% 1.3 mph NE2.1 kmh NE 1.8 mph2.9 kmh 30.30 in1026.1 mb 0.00 in0.0 mm 0.00 in0.0 mm 0.00 in0.0 mm
02:04 AM 33.1°F0.6°C 30.4°F-0.9°C 90% 1.1 mph NE1.8 kmh NE 1.6 mph2.6 kmh 30.30 in1026.1 mb 0.00 in0.0 mm 0.00 in0.0 mm 0.00 in0.0 mm
02:09 AM 32.9°F0.5°C 30.2°F-1.0°C 90% 1.1 mph NE1.8 kmh NE 1.6 mph2.6 kmh 30.30 in1026.1 mb 0.00 in0.0 mm 0.00 in0.0 mm 0.00 in0.0 mm
02:14 AM 32.7°F0.4°C 30.2°F-1.0°C 90% 1.1 mph N1.8 kmh N 1.6 mph2.6 kmh 30.30 in1026.1 mb 0.00 in0.0 mm 0.00 in0.0 mm 0.00 in0.0 mm
02:19 AM 32.7°F0.4°C 30.2°F-1.0°C 90% 1.1 mph N1.8 kmh N 1.3 mph2.1 kmh 30.31 in1026.4 mb 0.00 in0.0 mm 0.00 in0.0 mm 0.00 in0.0 mm
02:24 AM 32.9°F0.5°C 30.2°F-1.0°C 90% 1.1 mph NE1.8 kmh NE 1.8 mph2.9 kmh 30.31 in1026.4 mb 0.00 in0.0 mm 0.00 in0.0 mm 0.00 in0.0 mm
02:29 AM 32.7°F0.4°C 30.2°F-1.0°C 90% 1.6 mph N2.6 kmh N 2.9 mph4.7 kmh 30.31 in1026.4 mb 0.00 in0.0 mm 0.00 in0.0 mm 0.00 in0.0 mm
02:34 AM 32.5°F0.3°C 30.2°F-1.0°C 91% 1.6 mph NNE2.6 kmh NNE 2.0 mph3.2 kmh 30.31 in1026.4 mb 0.00 in0.0 mm 0.00 in0.0 mm 0.00 in0.0 mm
02:39 AM 32.4°F0.2°C 30.0°F-1.1°C 91% 2.0 mph NE3.2 kmh NE 3.4 mph5.5 kmh 30.31 in1026.4 mb 0.00 in0.0 mm 0.00 in0.0 mm 0.00 in0.0 mm
02:44 AM 32.5°F0.3°C 30.2°F-1.0°C 91% 1.6 mph NE2.6 kmh NE 2.5 mph4.0 kmh 30.32 in1026.8 mb 0.00 in0.0 mm 0.00 in0.0 mm 0.00 in0.0 mm
02:49 AM 32.5°F0.3°C 30.2°F-1.0°C 91% 1.6 mph N2.6 kmh N 2.0 mph3.2 kmh 30.32 in1026.8 mb 0.00 in0.0 mm 0.00 in0.0 mm 0.00 in0.0 mm
02:54 AM 32.4°F0.2°C 30.0°F-1.1°C 91% 2.2 mph N3.5 kmh N 3.1 mph5.0 kmh 30.32 in1026.8 mb 0.00 in0.0 mm 0.00 in0.0 mm 0.00 in0.0 mm
02:59 AM 32.2°F0.1°C 29.8°F-1.2°C 91% 2.2 mph NNE3.5 kmh NNE 2.9 mph4.7 kmh 30.32 in1026.8 mb 0.00 in0.0 mm 0.00 in0.0 mm 0.00 in0.0 mm
03:04 AM 32.4°F0.2°C 30.0°F-1.1°C 91% 2.9 mph NNE4.7 kmh NNE 4.0 mph6.4 kmh 30.33 in1027.1 mb 0.00 in0.0 mm 0.00 in0.0 mm 0.00 in0.0 mm
03:09 AM 32.5°F0.3°C 30.2°F-1.0°C 91% 2.5 mph N4.0 kmh N 3.6 mph5.8 kmh 30.33 in1027.1 mb 0.00 in0.0 mm 0.00 in0.0 mm 0.00 in0.0 mm
03:14 AM 32.4°F0.2°C 29.8°F-1.2°C 90% 2.7 mph NE4.3 kmh NE 3.6 mph5.8 kmh 30.33 in1027.1 mb 0.00 in0.0 mm 0.00 in0.0 mm 0.00 in0.0 mm
03:19 AM 32.4°F0.2°C 30.0°F-1.1°C 91% 1.8 mph NE2.9 kmh NE 3.4 mph5.5 kmh 30.33 in1027.1 mb 0.00 in0.0 mm 0.00 in0.0 mm 0.00 in0.0 mm
03:24 AM 32.2°F0.1°C 29.7°F-1.3°C 90% 2.0 mph N3.2 kmh N 2.9 mph4.7 kmh 30.33 in1027.1 mb 0.00 in0.0 mm 0.00 in0.0 mm 0.00 in0.0 mm
03:29 AM 32.4°F0.2°C 30.0°F-1.1°C 91% 1.6 mph N2.6 kmh N 2.9 mph4.7 kmh 30.33 in1027.1 mb 0.00 in0.0 mm 0.00 in0.0 mm 0.00 in0.0 mm
03:34 AM 32.4°F0.2°C 30.0°F-1.1°C 91% 1.3 mph NNE2.1 kmh NNE 1.8 mph2.9 kmh 30.34 in1027.4 mb 0.00 in0.0 mm 0.00 in0.0 mm 0.00 in0.0 mm
03:39 AM 32.4°F0.2°C 29.8°F-1.2°C 90% 0.9 mph NE1.4 kmh NE 1.6 mph2.6 kmh 30.34 in1027.4 mb 0.00 in0.0 mm 0.00 in0.0 mm 0.00 in0.0 mm
03:44 AM 32.4°F0.2°C 30.0°F-1.1°C 91% 1.8 mph N2.9 kmh N 2.2 mph3.5 kmh 30.34 in1027.4 mb 0.00 in0.0 mm 0.00 in0.0 mm 0.00 in0.0 mm
03:49 AM 32.4°F0.2°C 30.0°F-1.1°C 91% 1.1 mph N1.8 kmh N 2.7 mph4.3 kmh 30.34 in1027.4 mb 0.00 in0.0 mm 0.00 in0.0 mm 0.00 in0.0 mm
03:54 AM 32.4°F0.2°C 30.0°F-1.1°C 91% 1.1 mph NE1.8 kmh NE 2.0 mph3.2 kmh 30.35 in1027.8 mb 0.00 in0.0 mm 0.00 in0.0 mm 0.00 in0.0 mm
03:59 AM 32.4°F0.2°C 30.0°F-1.1°C 91% 1.3 mph NE2.1 kmh NE 1.8 mph2.9 kmh 30.35 in1027.8 mb 0.00 in0.0 mm 0.00 in0.0 mm 0.00 in0.0 mm
04:04 AM 32.4°F0.2°C 30.0°F-1.1°C 91% 2.5 mph NNE4.0 kmh NNE 2.7 mph4.3 kmh 30.35 in1027.8 mb 0.00 in0.0 mm 0.00 in0.0 mm 0.00 in0.0 mm
04:09 AM 32.2°F0.1°C 29.8°F-1.2°C 91% 1.6 mph NNE2.6 kmh NNE 2.2 mph3.5 kmh 30.35 in1027.8 mb 0.00 in0.0 mm 0.00 in0.0 mm 0.00 in0.0 mm
04:14 AM 32.2°F0.1°C 29.7°F-1.3°C 90% 1.6 mph NE2.6 kmh NE 2.2 mph3.5 kmh 30.35 in1027.8 mb 0.00 in0.0 mm 0.00 in0.0 mm 0.00 in0.0 mm
04:19 AM 32.2°F0.1°C 29.7°F-1.3°C 90% 1.6 mph NE2.6 kmh NE 2.5 mph4.0 kmh 30.35 in1027.8 mb 0.00 in0.0 mm 0.00 in0.0 mm 0.00 in0.0 mm
04:24 AM 32.2°F0.1°C 29.7°F-1.3°C 90% 1.1 mph NE1.8 kmh NE 1.8 mph2.9 kmh 30.35 in1027.8 mb 0.00 in0.0 mm 0.00 in0.0 mm 0.00 in0.0 mm
04:29 AM 32.2°F0.1°C 29.7°F-1.3°C 90% 1.6 mph NNE2.6 kmh NNE 2.5 mph4.0 kmh 30.35 in1027.8 mb 0.00 in0.0 mm 0.00 in0.0 mm 0.00 in0.0 mm
04:34 AM 32.2°F0.1°C 29.7°F-1.3°C 90% 2.2 mph NE3.5 kmh NE 2.7 mph4.3 kmh 30.34 in1027.4 mb 0.00 in0.0 mm 0.00 in0.0 mm 0.00 in0.0 mm
04:39 AM 32.0°F0.0°C 29.5°F-1.4°C 90% 1.1 mph ENE1.8 kmh ENE 1.8 mph2.9 kmh 30.34 in1027.4 mb 0.00 in0.0 mm 0.00 in0.0 mm 0.00 in0.0 mm
04:44 AM 32.2°F0.1°C 29.8°F-1.2°C 91% 1.1 mph ENE1.8 kmh ENE 2.0 mph3.2 kmh 30.34 in1027.4 mb 0.00 in0.0 mm 0.00 in0.0 mm 0.00 in0.0 mm
04:49 AM 32.2°F0.1°C 29.8°F-1.2°C 91% 0.9 mph NE1.4 kmh NE 2.0 mph3.2 kmh 30.34 in1027.4 mb 0.00 in0.0 mm 0.00 in0.0 mm 0.00 in0.0 mm
04:54 AM 32.2°F0.1°C 29.8°F-1.2°C 91% 1.6 mph NE2.6 kmh NE 2.5 mph4.0 kmh 30.33 in1027.1 mb 0.00 in0.0 mm 0.00 in0.0 mm 0.00 in0.0 mm
04:59 AM 32.0°F0.0°C 29.7°F-1.3°C 91% 1.6 mph N2.6 kmh N 2.2 mph3.5 kmh 30.34 in1027.4 mb 0.00 in0.0 mm 0.00 in0.0 mm 0.00 in0.0 mm
05:04 AM 32.0°F0.0°C 29.7°F-1.3°C 91% 1.6 mph N2.6 kmh N 2.2 mph3.5 kmh 30.33 in1027.1 mb 0.00 in0.0 mm 0.00 in0.0 mm 0.00 in0.0 mm
05:09 AM 32.0°F0.0°C 29.7°F-1.3°C 91% 1.6 mph NE2.6 kmh NE 2.5 mph4.0 kmh 30.33 in1027.1 mb 0.00 in0.0 mm 0.00 in0.0 mm 0.00 in0.0 mm
05:14 AM 32.0°F0.0°C 29.5°F-1.4°C 90% 1.3 mph NE2.1 kmh NE 1.8 mph2.9 kmh 30.32 in1026.8 mb 0.00 in0.0 mm 0.00 in0.0 mm 0.00 in0.0 mm
05:19 AM 32.2°F0.1°C 29.8°F-1.2°C 91% 1.6 mph ENE2.6 kmh ENE 2.5 mph4.0 kmh 30.32 in1026.8 mb 0.00 in0.0 mm 0.00 in0.0 mm 0.00 in0.0 mm
05:24 AM 32.2°F0.1°C 29.7°F-1.3°C 90% 0.9 mph NE1.4 kmh NE 1.8 mph2.9 kmh 30.32 in1026.8 mb 0.00 in0.0 mm 0.00 in0.0 mm 0.00 in0.0 mm
05:29 AM 32.0°F0.0°C 29.5°F-1.4°C 90% 2.2 mph NNE3.5 kmh NNE 2.9 mph4.7 kmh 30.32 in1026.8 mb 0.00 in0.0 mm 0.00 in0.0 mm 0.00 in0.0 mm
05:34 AM 32.0°F0.0°C 29.5°F-1.4°C 90% 2.2 mph NE3.5 kmh NE 2.7 mph4.3 kmh 30.31 in1026.4 mb 0.00 in0.0 mm 0.00 in0.0 mm 0.00 in0.0 mm
05:39 AM 31.8°F-0.1°C 29.3°F-1.5°C 90% 2.2 mph NE3.5 kmh NE 3.1 mph5.0 kmh 30.31 in1026.4 mb 0.00 in0.0 mm 0.00 in0.0 mm 0.00 in0.0 mm
05:44 AM 31.8°F-0.1°C 29.3°F-1.5°C 90% 1.3 mph ENE2.1 kmh ENE 2.7 mph4.3 kmh 30.31 in1026.4 mb 0.00 in0.0 mm 0.00 in0.0 mm 0.00 in0.0 mm
05:49 AM 32.0°F0.0°C 29.5°F-1.4°C 90% 1.1 mph NE1.8 kmh NE 1.8 mph2.9 kmh 30.30 in1026.1 mb 0.00 in0.0 mm 0.00 in0.0 mm 0.00 in0.0 mm
05:54 AM 31.8°F-0.1°C 29.3°F-1.5°C 90% 1.6 mph NNE2.6 kmh NNE 2.5 mph4.0 kmh 30.30 in1026.1 mb 0.00 in0.0 mm 0.00 in0.0 mm 0.00 in0.0 mm
05:59 AM 32.0°F0.0°C 29.5°F-1.4°C 90% 1.8 mph E2.9 kmh E 2.2 mph3.5 kmh 30.30 in1026.1 mb 0.00 in0.0 mm 0.00 in0.0 mm 0.00 in0.0 mm
06:04 AM 32.0°F0.0°C 29.5°F-1.4°C 90% 1.6 mph ENE2.6 kmh ENE 2.5 mph4.0 kmh 30.31 in1026.4 mb 0.00 in0.0 mm 0.00 in0.0 mm 0.00 in0.0 mm
06:09 AM 32.0°F0.0°C 29.5°F-1.4°C 90% 0.7 mph NNE1.1 kmh NNE 2.0 mph3.2 kmh 30.31 in1026.4 mb 0.00 in0.0 mm 0.00 in0.0 mm 0.00 in0.0 mm
06:14 AM 32.0°F0.0°C 29.5°F-1.4°C 90% 1.8 mph NE2.9 kmh NE 2.5 mph4.0 kmh 30.31 in1026.4 mb 0.00 in0.0 mm 0.00 in0.0 mm 0.00 in0.0 mm
06:19 AM 32.0°F0.0°C 29.5°F-1.4°C 90% 1.3 mph NE2.1 kmh NE 1.8 mph2.9 kmh 30.31 in1026.4 mb 0.00 in0.0 mm 0.00 in0.0 mm 0.00 in0.0 mm
06:24 AM 32.2°F0.1°C 29.7°F-1.3°C 90% 1.1 mph E1.8 kmh E 1.6 mph2.6 kmh 30.30 in1026.1 mb 0.00 in0.0 mm 0.00 in0.0 mm 0.00 in0.0 mm
06:29 AM 32.2°F0.1°C 29.7°F-1.3°C 90% 1.8 mph ESE2.9 kmh ESE 2.2 mph3.5 kmh 30.30 in1026.1 mb 0.00 in0.0 mm 0.00 in0.0 mm 0.00 in0.0 mm
06:34 AM 32.2°F0.1°C 29.7°F-1.3°C 90% 0.9 mph NE1.4 kmh NE 1.3 mph2.1 kmh 30.30 in1026.1 mb 0.00 in0.0 mm 0.00 in0.0 mm 0.00 in0.0 mm
06:39 AM 32.2°F0.1°C 29.7°F-1.3°C 90% Calm Calm -- 30.30 in1026.1 mb 0.00 in0.0 mm 0.00 in0.0 mm 0.00 in0.0 mm
06:44 AM 32.2°F0.1°C 29.7°F-1.3°C 90% 1.8 mph ESE2.9 kmh ESE 2.2 mph3.5 kmh 30.30 in1026.1 mb 0.00 in0.0 mm 0.00 in0.0 mm 0.00 in0.0 mm
06:49 AM 32.2°F0.1°C 29.7°F-1.3°C 90% 1.8 mph SE2.9 kmh SE 2.9 mph4.7 kmh 30.30 in1026.1 mb 0.00 in0.0 mm 0.00 in0.0 mm 0.00 in0.0 mm
06:54 AM 32.4°F0.2°C 29.8°F-1.2°C 90% 2.2 mph SE3.5 kmh SE 2.5 mph4.0 kmh 30.30 in1026.1 mb 0.00 in0.0 mm 0.00 in0.0 mm 0.00 in0.0 mm
06:59 AM 32.4°F0.2°C 29.8°F-1.2°C 90% 0.4 mph E0.6 kmh E 1.8 mph2.9 kmh 30.30 in1026.1 mb 0.00 in0.0 mm 0.00 in0.0 mm 0.00 in0.0 mm
07:04 AM 32.4°F0.2°C 29.8°F-1.2°C 90% 1.3 mph NE2.1 kmh NE 1.8 mph2.9 kmh 30.31 in1026.4 mb 0.00 in0.0 mm 0.00 in0.0 mm 0.00 in0.0 mm
07:09 AM 32.2°F0.1°C 29.3°F-1.5°C 89% 1.1 mph ENE1.8 kmh ENE 1.8 mph2.9 kmh 30.30 in1026.1 mb 0.00 in0.0 mm 0.00 in0.0 mm 0.00 in0.0 mm
07:14 AM 32.4°F0.2°C 29.8°F-1.2°C 90% 2.0 mph ESE3.2 kmh ESE 2.7 mph4.3 kmh 30.31 in1026.4 mb 0.00 in0.0 mm 0.00 in0.0 mm 0.00 in0.0 mm
07:19 AM 32.5°F0.3°C 30.0°F-1.1°C 90% 1.6 mph SSW2.6 kmh SSW 2.7 mph4.3 kmh 30.31 in1026.4 mb 0.00 in0.0 mm 0.00 in0.0 mm 0.00 in0.0 mm
07:24 AM 32.4°F0.2°C 29.8°F-1.2°C 90% 2.5 mph SE4.0 kmh SE 3.1 mph5.0 kmh 30.31 in1026.4 mb 0.00 in0.0 mm 0.00 in0.0 mm 0.00 in0.0 mm
07:29 AM 32.4°F0.2°C 29.8°F-1.2°C 90% 1.8 mph SE2.9 kmh SE 2.7 mph4.3 kmh 30.31 in1026.4 mb 0.00 in0.0 mm 0.00 in0.0 mm 0.00 in0.0 mm
07:34 AM 32.5°F0.3°C 30.0°F-1.1°C 90% 0.9 mph SSE1.4 kmh SSE 1.1 mph1.8 kmh 30.31 in1026.4 mb 0.00 in0.0 mm 0.00 in0.0 mm 0.00 in0.0 mm
07:39 AM 32.5°F0.3°C 30.0°F-1.1°C 90% 0.9 mph SE1.4 kmh SE 1.3 mph2.1 kmh 30.31 in1026.4 mb 0.00 in0.0 mm 0.00 in0.0 mm 0.00 in0.0 mm
07:44 AM 32.5°F0.3°C 30.0°F-1.1°C 90% 0.9 mph E1.4 kmh E 2.2 mph3.5 kmh 30.31 in1026.4 mb 0.00 in0.0 mm 0.00 in0.0 mm 0.00 in0.0 mm
07:49 AM 32.5°F0.3°C 30.0°F-1.1°C 90% 1.8 mph ESE2.9 kmh ESE 2.0 mph3.2 kmh 30.31 in1026.4 mb 0.00 in0.0 mm 0.00 in0.0 mm 0.00 in0.0 mm
07:54 AM 32.5°F0.3°C 30.0°F-1.1°C 90% 1.8 mph ESE2.9 kmh ESE 3.1 mph5.0 kmh 30.31 in1026.4 mb 0.00 in0.0 mm 0.00 in0.0 mm 0.00 in0.0 mm
07:59 AM 32.5°F0.3°C 30.0°F-1.1°C 90% 0.4 mph NNE0.6 kmh NNE 4.5 mph7.2 kmh 30.31 in1026.4 mb 0.00 in0.0 mm 0.00 in0.0 mm 0.00 in0.0 mm
08:04 AM 32.5°F0.3°C 30.0°F-1.1°C 90% 2.7 mph SE4.3 kmh SE 3.4 mph5.5 kmh 30.30 in1026.1 mb 0.00 in0.0 mm 0.00 in0.0 mm 0.00 in0.0 mm
08:09 AM 32.7°F0.4°C 30.2°F-1.0°C 90% 1.8 mph SE2.9 kmh SE 2.2 mph3.5 kmh 30.30 in1026.1 mb 0.00 in0.0 mm 0.00 in0.0 mm 0.00 in0.0 mm
08:14 AM 32.7°F0.4°C 30.2°F-1.0°C 90% 0.9 mph S1.4 kmh S 1.8 mph2.9 kmh 30.30 in1026.1 mb 0.00 in0.0 mm 0.00 in0.0 mm 0.00 in0.0 mm
08:19 AM 32.5°F0.3°C 30.0°F-1.1°C 90% 2.2 mph SE3.5 kmh SE 2.5 mph4.0 kmh 30.29 in1025.7 mb 0.00 in0.0 mm 0.00 in0.0 mm 0.00 in0.0 mm
08:24 AM 32.7°F0.4°C 30.2°F-1.0°C 90% 1.3 mph SE2.1 kmh SE 2.0 mph3.2 kmh 30.30 in1026.1 mb 0.00 in0.0 mm 0.00 in0.0 mm 0.00 in0.0 mm
08:29 AM 32.5°F0.3°C 30.0°F-1.1°C 90% 1.6 mph SSE2.6 kmh SSE 2.2 mph3.5 kmh 30.30 in1026.1 mb 0.00 in0.0 mm 0.00 in0.0 mm 0.00 in0.0 mm
08:34 AM 32.5°F0.3°C 30.0°F-1.1°C 90% 1.3 mph SSE2.1 kmh SSE 4.5 mph7.2 kmh 30.30 in1026.1 mb 0.00 in0.0 mm 0.00 in0.0 mm 0.00 in0.0 mm
08:39 AM 32.5°F0.3°C 30.0°F-1.1°C 90% 1.6 mph SSE2.6 kmh SSE 2.0 mph3.2 kmh 30.30 in1026.1 mb 0.00 in0.0 mm 0.00 in0.0 mm 0.00 in0.0 mm
08:44 AM 32.5°F0.3°C 30.2°F-1.0°C 91% 2.0 mph SE3.2 kmh SE 2.7 mph4.3 kmh 30.29 in1025.7 mb 0.00 in0.0 mm 0.00 in0.0 mm 0.00 in0.0 mm
08:49 AM 32.7°F0.4°C 30.4°F-0.9°C 91% 0.9 mph SSE1.4 kmh SSE 1.3 mph2.1 kmh 30.30 in1026.1 mb 0.00 in0.0 mm 0.00 in0.0 mm 0.00 in0.0 mm
08:54 AM 32.9°F0.5°C 30.6°F-0.8°C 91% 2.0 mph SSE3.2 kmh SSE 2.7 mph4.3 kmh 30.30 in1026.1 mb 0.00 in0.0 mm 0.00 in0.0 mm 0.00 in0.0 mm
08:59 AM 32.5°F0.3°C 30.2°F-1.0°C 91% 1.3 mph SSE2.1 kmh SSE 2.5 mph4.0 kmh 30.30 in1026.1 mb 0.00 in0.0 mm 0.00 in0.0 mm 0.00 in0.0 mm
09:04 AM 32.7°F0.4°C 30.4°F-0.9°C 91% 1.3 mph SSE2.1 kmh SSE 2.7 mph4.3 kmh 30.30 in1026.1 mb 0.00 in0.0 mm 0.00 in0.0 mm 0.00 in0.0 mm
09:09 AM 32.5°F0.3°C 30.2°F-1.0°C 91% 2.0 mph SE3.2 kmh SE 2.7 mph4.3 kmh 30.30 in1026.1 mb 0.00 in0.0 mm 0.00 in0.0 mm 0.00 in0.0 mm
09:14 AM 32.7°F0.4°C 30.4°F-0.9°C 91% 1.3 mph SSE2.1 kmh SSE 2.0 mph3.2 kmh 30.29 in1025.7 mb 0.00 in0.0 mm 0.00 in0.0 mm 0.00 in0.0 mm
09:19 AM 32.7°F0.4°C 30.4°F-0.9°C 91% 1.6 mph SSE2.6 kmh SSE 2.0 mph3.2 kmh 30.30 in1026.1 mb 0.00 in0.0 mm 0.00 in0.0 mm 0.00 in0.0 mm
09:24 AM 32.9°F0.5°C 30.6°F-0.8°C 91% 1.3 mph SSE2.1 kmh SSE 1.6 mph2.6 kmh 30.29 in1025.7 mb 0.00 in0.0 mm 0.00 in0.0 mm 0.00 in0.0 mm
09:29 AM 33.1°F0.6°C 30.7°F-0.7°C 91% 1.3 mph SSE2.1 kmh SSE 1.6 mph2.6 kmh 30.30 in1026.1 mb 0.00 in0.0 mm 0.00 in0.0 mm 0.00 in0.0 mm
09:34 AM 33.1°F0.6°C 30.7°F-0.7°C 91% 0.9 mph SE1.4 kmh SE 1.6 mph2.6 kmh 30.30 in1026.1 mb 0.00 in0.0 mm 0.00 in0.0 mm 0.00 in0.0 mm
09:39 AM 33.1°F0.6°C 30.7°F-0.7°C 91% 2.0 mph ESE3.2 kmh ESE 2.2 mph3.5 kmh 30.30 in1026.1 mb 0.00 in0.0 mm 0.00 in0.0 mm 0.00 in0.0 mm
09:44 AM 33.3°F0.7°C 30.9°F-0.6°C 91% 1.3 mph S2.1 kmh S 1.8 mph2.9 kmh 30.31 in1026.4 mb 0.00 in0.0 mm 0.00 in0.0 mm 0.00 in0.0 mm
09:49 AM 33.1°F0.6°C 30.7°F-0.7°C 91% 2.2 mph S3.5 kmh S 3.6 mph5.8 kmh 30.31 in1026.4 mb 0.00 in0.0 mm 0.00 in0.0 mm 0.00 in0.0 mm
09:54 AM 33.3°F0.7°C 30.9°F-0.6°C 91% 0.9 mph SSE1.4 kmh SSE 2.0 mph3.2 kmh 30.30 in1026.1 mb 0.00 in0.0 mm 0.00 in0.0 mm 0.00 in0.0 mm
09:59 AM 33.3°F0.7°C 30.6°F-0.8°C 90% 3.4 mph ESE5.5 kmh ESE 4.3 mph6.9 kmh 30.30 in1026.1 mb 0.00 in0.0 mm 0.00 in0.0 mm 0.00 in0.0 mm
10:04 AM 33.3°F0.7°C 30.9°F-0.6°C 91% 1.1 mph S1.8 kmh S 2.0 mph3.2 kmh 30.31 in1026.4 mb 0.00 in0.0 mm 0.00 in0.0 mm 0.00 in0.0 mm
10:09 AM 33.4°F0.8°C 31.1°F-0.5°C 91% 1.3 mph SE2.1 kmh SE 2.0 mph3.2 kmh 30.31 in1026.4 mb 0.00 in0.0 mm 0.00 in0.0 mm 0.00 in0.0 mm
10:14 AM 33.4°F0.8°C 31.1°F-0.5°C 91% 2.5 mph S4.0 kmh S 4.0 mph6.4 kmh 30.31 in1026.4 mb 0.00 in0.0 mm 0.00 in0.0 mm 0.00 in0.0 mm
10:19 AM 33.3°F0.7°C 30.6°F-0.8°C 90% 1.1 mph S1.8 kmh S 1.8 mph2.9 kmh 30.31 in1026.4 mb 0.00 in0.0 mm 0.00 in0.0 mm 0.00 in0.0 mm
10:24 AM 33.4°F0.8°C 31.1°F-0.5°C 91% 1.6 mph SSE2.6 kmh SSE 2.2 mph3.5 kmh 30.31 in1026.4 mb 0.00 in0.0 mm 0.00 in0.0 mm 0.00 in0.0 mm
10:29 AM 33.4°F0.8°C 31.1°F-0.5°C 91% 1.1 mph SE1.8 kmh SE 2.0 mph3.2 kmh 30.31 in1026.4 mb 0.00 in0.0 mm 0.00 in0.0 mm 0.00 in0.0 mm
10:34 AM 33.6°F0.9°C 31.3°F-0.4°C 91% 0.7 mph SSE1.1 kmh SSE 2.0 mph3.2 kmh 30.31 in1026.4 mb 0.00 in0.0 mm 0.00 in0.0 mm 0.00 in0.0 mm
10:39 AM 33.6°F0.9°C 31.3°F-0.4°C 91% 1.3 mph S2.1 kmh S 2.5 mph4.0 kmh 30.31 in1026.4 mb 0.00 in0.0 mm 0.00 in0.0 mm 0.00 in0.0 mm
10:44 AM 34.0°F1.1°C 31.6°F-0.2°C 91% 1.8 mph SE2.9 kmh SE 2.2 mph3.5 kmh 30.31 in1026.4 mb 0.00 in0.0 mm 0.00 in0.0 mm 0.00 in0.0 mm
10:49 AM 33.8°F1.0°C 31.1°F-0.5°C 90% 2.7 mph SSE4.3 kmh SSE 3.4 mph5.5 kmh 30.30 in1026.1 mb 0.00 in0.0 mm 0.00 in0.0 mm 0.00 in0.0 mm
10:54 AM 33.8°F1.0°C 31.5°F-0.3°C 91% 1.1 mph S1.8 kmh S 1.6 mph2.6 kmh 30.31 in1026.4 mb 0.00 in0.0 mm 0.00 in0.0 mm 0.00 in0.0 mm
10:59 AM 34.0°F1.1°C 31.6°F-0.2°C 91% 1.3 mph SE2.1 kmh SE 2.7 mph4.3 kmh 30.30 in1026.1 mb 0.00 in0.0 mm 0.00 in0.0 mm 0.00 in0.0 mm
11:04 AM 34.2°F1.2°C 31.5°F-0.3°C 90% 1.6 mph ESE2.6 kmh ESE 2.2 mph3.5 kmh 30.31 in1026.4 mb 0.00 in0.0 mm 0.00 in0.0 mm 0.00 in0.0 mm
11:09 AM 34.5°F1.4°C 31.8°F-0.1°C 90% 1.6 mph SW2.6 kmh SW 2.2 mph3.5 kmh 30.31 in1026.4 mb 0.00 in0.0 mm 0.00 in0.0 mm 0.00 in0.0 mm
11:14 AM 34.5°F1.4°C 31.8°F-0.1°C 90% 1.3 mph SE2.1 kmh SE 2.0 mph3.2 kmh 30.30 in1026.1 mb 0.00 in0.0 mm 0.00 in0.0 mm 0.00 in0.0 mm
11:19 AM 34.5°F1.4°C 31.6°F-0.2°C 89% 1.1 mph SE1.8 kmh SE 1.8 mph2.9 kmh 30.30 in1026.1 mb 0.00 in0.0 mm 0.00 in0.0 mm 0.00 in0.0 mm
11:24 AM 34.9°F1.6°C 32.0°F0.0°C 89% 0.4 mph E0.6 kmh E 1.6 mph2.6 kmh 30.30 in1026.1 mb 0.00 in0.0 mm 0.00 in0.0 mm 0.00 in0.0 mm
11:29 AM 34.9°F1.6°C 32.0°F0.0°C 89% 2.2 mph E3.5 kmh E 2.7 mph4.3 kmh 30.29 in1025.7 mb 0.00 in0.0 mm 0.00 in0.0 mm 0.00 in0.0 mm
11:34 AM 34.7°F1.5°C 31.8°F-0.1°C 89% 1.1 mph SE1.8 kmh SE 1.8 mph2.9 kmh 30.29 in1025.7 mb 0.00 in0.0 mm 0.00 in0.0 mm 0.00 in0.0 mm
11:39 AM 34.5°F1.4°C 31.6°F-0.2°C 89% 1.1 mph ESE1.8 kmh ESE 1.6 mph2.6 kmh 30.28 in1025.4 mb 0.00 in0.0 mm 0.00 in0.0 mm 0.00 in0.0 mm
11:44 AM 34.7°F1.5°C 31.8°F-0.1°C 89% 1.8 mph E2.9 kmh E 2.5 mph4.0 kmh 30.28 in1025.4 mb 0.00 in0.0 mm 0.00 in0.0 mm 0.00 in0.0 mm
11:49 AM 34.9°F1.6°C 32.0°F0.0°C 89% 0.9 mph SSE1.4 kmh SSE 1.6 mph2.6 kmh 30.28 in1025.4 mb 0.00 in0.0 mm 0.00 in0.0 mm 0.00 in0.0 mm
11:54 AM 34.9°F1.6°C 32.0°F0.0°C 89% 1.8 mph SE2.9 kmh SE 2.7 mph4.3 kmh 30.28 in1025.4 mb 0.00 in0.0 mm 0.00 in0.0 mm 0.00 in0.0 mm
11:59 AM 34.9°F1.6°C 32.0°F0.0°C 89% 2.5 mph ESE4.0 kmh ESE 3.4 mph5.5 kmh 30.28 in1025.4 mb 0.00 in0.0 mm 0.00 in0.0 mm 0.00 in0.0 mm
12:04 PM 35.1°F1.7°C 32.2°F0.1°C 89% 2.0 mph ESE3.2 kmh ESE 2.7 mph4.3 kmh 30.27 in1025.1 mb 0.00 in0.0 mm 0.00 in0.0 mm 0.00 in0.0 mm
12:09 PM 35.2°F1.8°C 32.4°F0.2°C 89% 2.2 mph S3.5 kmh S 3.6 mph5.8 kmh 30.27 in1025.1 mb 0.00 in0.0 mm 0.00 in0.0 mm 0.00 in0.0 mm
12:14 PM 35.2°F1.8°C 32.4°F0.2°C 89% 2.2 mph ESE3.5 kmh ESE 2.7 mph4.3 kmh 30.27 in1025.1 mb 0.00 in0.0 mm 0.00 in0.0 mm 0.00 in0.0 mm
12:19 PM 35.4°F1.9°C 32.5°F0.3°C 89% 1.6 mph SE2.6 kmh SE 2.9 mph4.7 kmh 30.27 in1025.1 mb 0.00 in0.0 mm 0.00 in0.0 mm 0.00 in0.0 mm
12:24 PM 35.6°F2.0°C 32.7°F0.4°C 89% 0.7 mph SSE1.1 kmh SSE 2.7 mph4.3 kmh 30.27 in1025.1 mb 0.00 in0.0 mm 0.00 in0.0 mm 0.00 in0.0 mm
12:29 PM 35.8°F2.1°C 32.9°F0.5°C 89% 2.2 mph ESE3.5 kmh ESE 3.4 mph5.5 kmh 30.26 in1024.7 mb 0.00 in0.0 mm 0.00 in0.0 mm 0.00 in0.0 mm
12:34 PM 35.8°F2.1°C 32.5°F0.3°C 88% 1.6 mph SE2.6 kmh SE 3.6 mph5.8 kmh 30.26 in1024.7 mb 0.00 in0.0 mm 0.00 in0.0 mm 0.00 in0.0 mm
12:39 PM 35.8°F2.1°C 32.5°F0.3°C 88% 2.0 mph SE3.2 kmh SE 2.9 mph4.7 kmh 30.25 in1024.4 mb 0.00 in0.0 mm 0.00 in0.0 mm 0.00 in0.0 mm
12:44 PM 35.8°F2.1°C 32.5°F0.3°C 88% 2.5 mph ESE4.0 kmh ESE 3.4 mph5.5 kmh 30.25 in1024.4 mb 0.00 in0.0 mm 0.00 in0.0 mm 0.00 in0.0 mm
12:49 PM 35.8°F2.1°C 32.5°F0.3°C 88% 2.2 mph S3.5 kmh S 3.4 mph5.5 kmh 30.25 in1024.4 mb 0.00 in0.0 mm 0.00 in0.0 mm 0.00 in0.0 mm
12:54 PM 35.8°F2.1°C 32.5°F0.3°C 88% 1.3 mph SSE2.1 kmh SSE 2.7 mph4.3 kmh 30.25 in1024.4 mb 0.00 in0.0 mm 0.00 in0.0 mm 0.00 in0.0 mm
12:59 PM 36.0°F2.2°C 32.7°F0.4°C 88% 2.2 mph SSE3.5 kmh SSE 2.9 mph4.7 kmh 30.24 in1024.0 mb 0.00 in0.0 mm 0.00 in0.0 mm 0.00 in0.0 mm
01:04 PM 35.8°F2.1°C 32.5°F0.3°C 88% 1.1 mph SSE1.8 kmh SSE 1.8 mph2.9 kmh 30.24 in1024.0 mb 0.00 in0.0 mm 0.00 in0.0 mm 0.00 in0.0 mm
01:09 PM 35.8°F2.1°C 32.5°F0.3°C 88% 2.2 mph SE3.5 kmh SE 3.1 mph5.0 kmh 30.24 in1024.0 mb 0.00 in0.0 mm 0.00 in0.0 mm 0.00 in0.0 mm
01:14 PM 36.0°F2.2°C 32.7°F0.4°C 88% 2.2 mph SSE3.5 kmh SSE 2.9 mph4.7 kmh 30.23 in1023.7 mb 0.00 in0.0 mm 0.00 in0.0 mm 0.00 in0.0 mm
01:19 PM 36.0°F2.2°C 32.7°F0.4°C 88% 0.7 mph S1.1 kmh S 1.6 mph2.6 kmh 30.23 in1023.7 mb 0.00 in0.0 mm 0.00 in0.0 mm 0.00 in0.0 mm
01:24 PM 36.0°F2.2°C 32.7°F0.4°C 88% 2.2 mph SSE3.5 kmh SSE 3.1 mph5.0 kmh 30.22 in1023.4 mb 0.00 in0.0 mm 0.00 in0.0 mm 0.00 in0.0 mm
01:29 PM 36.0°F2.2°C 32.7°F0.4°C 88% 1.8 mph ESE2.9 kmh ESE 2.7 mph4.3 kmh 30.22 in1023.4 mb 0.00 in0.0 mm 0.00 in0.0 mm 0.00 in0.0 mm
01:34 PM 36.0°F2.2°C 32.7°F0.4°C 88% 1.8 mph S2.9 kmh S 2.7 mph4.3 kmh 30.22 in1023.4 mb 0.00 in0.0 mm 0.00 in0.0 mm 0.00 in0.0 mm
01:39 PM 36.1°F2.3°C 32.9°F0.5°C 88% 2.2 mph SSE3.5 kmh SSE 2.9 mph4.7 kmh 30.22 in1023.4 mb 0.00 in0.0 mm 0.00 in0.0 mm 0.00 in0.0 mm
01:44 PM 36.0°F2.2°C 32.7°F0.4°C 88% 2.9 mph SSE4.7 kmh SSE 5.1 mph8.2 kmh 30.21 in1023.0 mb 0.00 in0.0 mm 0.00 in0.0 mm 0.00 in0.0 mm
01:49 PM 36.0°F2.2°C 32.7°F0.4°C 88% 2.2 mph E3.5 kmh E 3.6 mph5.8 kmh 30.20 in1022.7 mb 0.00 in0.0 mm 0.00 in0.0 mm 0.00 in0.0 mm
01:54 PM 36.1°F2.3°C 32.9°F0.5°C 88% 1.6 mph S2.6 kmh S 2.7 mph4.3 kmh 30.19 in1022.4 mb 0.00 in0.0 mm 0.00 in0.0 mm 0.00 in0.0 mm
01:59 PM 36.3°F2.4°C 33.1°F0.6°C 88% 1.8 mph SE2.9 kmh SE 2.7 mph4.3 kmh 30.19 in1022.4 mb 0.00 in0.0 mm 0.00 in0.0 mm 0.00 in0.0 mm
02:04 PM 36.7°F2.6°C 33.4°F0.8°C 88% 2.0 mph SE3.2 kmh SE 3.4 mph5.5 kmh 30.19 in1022.4 mb 0.00 in0.0 mm 0.00 in0.0 mm 0.00 in0.0 mm
02:09 PM 36.5°F2.5°C 33.3°F0.7°C 88% 2.0 mph SE3.2 kmh SE 2.9 mph4.7 kmh 30.18 in1022.0 mb 0.00 in0.0 mm 0.00 in0.0 mm 0.00 in0.0 mm
02:14 PM 36.7°F2.6°C 33.4°F0.8°C 88% 0.9 mph SW1.4 kmh SW 2.9 mph4.7 kmh 30.17 in1021.7 mb 0.00 in0.0 mm 0.00 in0.0 mm 0.00 in0.0 mm
02:19 PM 36.9°F2.7°C 33.6°F0.9°C 88% 2.7 mph SSE4.3 kmh SSE 3.4 mph5.5 kmh 30.17 in1021.7 mb 0.00 in0.0 mm 0.00 in0.0 mm 0.00 in0.0 mm
02:24 PM 37.0°F2.8°C 33.8°F1.0°C 88% 2.7 mph SE4.3 kmh SE 4.5 mph7.2 kmh 30.17 in1021.7 mb 0.00 in0.0 mm 0.00 in0.0 mm 0.00 in0.0 mm
02:29 PM 37.0°F2.8°C 33.3°F0.7°C 86% 3.6 mph E5.8 kmh E 4.7 mph7.6 kmh 30.16 in1021.3 mb 0.00 in0.0 mm 0.00 in0.0 mm 0.00 in0.0 mm
02:34 PM 37.0°F2.8°C 33.8°F1.0°C 88% 2.9 mph S4.7 kmh S 4.7 mph7.6 kmh 30.16 in1021.3 mb 0.00 in0.0 mm 0.00 in0.0 mm 0.00 in0.0 mm
02:39 PM 36.9°F2.7°C 33.1°F0.6°C 86% 3.6 mph S5.8 kmh S 4.7 mph7.6 kmh 30.16 in1021.3 mb 0.00 in0.0 mm 0.00 in0.0 mm 0.00 in0.0 mm
02:44 PM 37.0°F2.8°C 33.3°F0.7°C 86% 1.6 mph SE2.6 kmh SE 3.6 mph5.8 kmh 30.15 in1021.0 mb 0.00 in0.0 mm 0.00 in0.0 mm 0.00 in0.0 mm
02:49 PM 37.2°F2.9°C 33.4°F0.8°C 86% 3.1 mph S5.0 kmh S 4.5 mph7.2 kmh 30.14 in1020.7 mb 0.00 in0.0 mm 0.00 in0.0 mm 0.00 in0.0 mm
02:54 PM 37.4°F3.0°C 33.6°F0.9°C 86% 4.0 mph SE6.4 kmh SE 10.1 mph16.3 kmh 30.13 in1020.3 mb 0.00 in0.0 mm 0.00 in0.0 mm 0.00 in0.0 mm
02:59 PM 37.4°F3.0°C 33.6°F0.9°C 86% 2.7 mph SE4.3 kmh SE 3.6 mph5.8 kmh 30.12 in1020.0 mb 0.00 in0.0 mm 0.00 in0.0 mm 0.00 in0.0 mm
03:04 PM 37.4°F3.0°C 33.6°F0.9°C 86% 3.8 mph SSW6.1 kmh SSW 6.7 mph10.8 kmh 30.12 in1020.0 mb 0.00 in0.0 mm 0.00 in0.0 mm 0.00 in0.0 mm
03:09 PM 37.4°F3.0°C 33.3°F0.7°C 85% 2.5 mph SE4.0 kmh SE 5.8 mph9.3 kmh 30.12 in1020.0 mb 0.00 in0.0 mm 0.00 in0.0 mm 0.00 in0.0 mm
03:14 PM 37.4°F3.0°C 33.6°F0.9°C 86% 3.1 mph S5.0 kmh S 5.8 mph9.3 kmh 30.11 in1019.6 mb 0.00 in0.0 mm 0.00 in0.0 mm 0.00 in0.0 mm
03:19 PM 37.6°F3.1°C 33.4°F0.8°C 85% 3.4 mph S5.5 kmh S 6.3 mph10.1 kmh 30.11 in1019.6 mb 0.00 in0.0 mm 0.00 in0.0 mm 0.00 in0.0 mm
03:24 PM 37.6°F3.1°C 33.4°F0.8°C 85% 3.1 mph SSE5.0 kmh SSE 4.5 mph7.2 kmh 30.11 in1019.6 mb 0.00 in0.0 mm 0.00 in0.0 mm 0.00 in0.0 mm
03:29 PM 37.6°F3.1°C 33.4°F0.8°C 85% 1.6 mph SSE2.6 kmh SSE 2.9 mph4.7 kmh 30.11 in1019.6 mb 0.00 in0.0 mm 0.00 in0.0 mm 0.00 in0.0 mm
03:34 PM 37.6°F3.1°C 33.4°F0.8°C 85% 1.8 mph SSE2.9 kmh SSE 3.8 mph6.1 kmh 30.10 in1019.3 mb 0.00 in0.0 mm 0.00 in0.0 mm 0.00 in0.0 mm
03:39 PM 37.8°F3.2°C 33.6°F0.9°C 85% 2.2 mph SSE3.5 kmh SSE 3.4 mph5.5 kmh 30.10 in1019.3 mb 0.00 in0.0 mm 0.00 in0.0 mm 0.00 in0.0 mm
03:44 PM 37.6°F3.1°C 33.4°F0.8°C 85% 3.1 mph S5.0 kmh S 4.9 mph7.9 kmh 30.09 in1019.0 mb 0.00 in0.0 mm 0.00 in0.0 mm 0.00 in0.0 mm
03:49 PM 37.8°F3.2°C 33.6°F0.9°C 85% 3.1 mph SSW5.0 kmh SSW 4.5 mph7.2 kmh 30.09 in1019.0 mb 0.00 in0.0 mm 0.00 in0.0 mm 0.00 in0.0 mm
03:54 PM 37.8°F3.2°C 33.6°F0.9°C 85% 2.5 mph SSE4.0 kmh SSE 3.6 mph5.8 kmh 30.09 in1019.0 mb 0.00 in0.0 mm 0.00 in0.0 mm 0.00 in0.0 mm
03:59 PM 37.8°F3.2°C 33.6°F0.9°C 85% 3.4 mph S5.5 kmh S 4.3 mph6.9 kmh 30.08 in1018.6 mb 0.00 in0.0 mm 0.00 in0.0 mm 0.00 in0.0 mm
04:04 PM 37.8°F3.2°C 33.6°F0.9°C 85% 2.9 mph SE4.7 kmh SE 4.0 mph6.4 kmh 30.08 in1018.6 mb 0.00 in0.0 mm 0.00 in0.0 mm 0.00 in0.0 mm
04:09 PM 37.8°F3.2°C 33.6°F0.9°C 85% 1.8 mph S2.9 kmh S 3.1 mph5.0 kmh 30.08 in1018.6 mb 0.00 in0.0 mm 0.00 in0.0 mm 0.00 in0.0 mm
04:14 PM 37.8°F3.2°C 33.6°F0.9°C 85% 2.5 mph S4.0 kmh S 4.0 mph6.4 kmh 30.07 in1018.3 mb 0.00 in0.0 mm 0.00 in0.0 mm 0.00 in0.0 mm
04:19 PM 37.8°F3.2°C 33.6°F0.9°C 85% 2.9 mph S4.7 kmh S 4.0 mph6.4 kmh 30.07 in1018.3 mb 0.00 in0.0 mm 0.00 in0.0 mm 0.00 in0.0 mm
04:24 PM 37.8°F3.2°C 33.6°F0.9°C 85% 1.8 mph SSW2.9 kmh SSW 3.1 mph5.0 kmh 30.07 in1018.3 mb 0.00 in0.0 mm 0.00 in0.0 mm 0.00 in0.0 mm
04:29 PM 37.9°F3.3°C 33.8°F1.0°C 85% 2.2 mph S3.5 kmh S 3.4 mph5.5 kmh 30.07 in1018.3 mb 0.00 in0.0 mm 0.00 in0.0 mm 0.00 in0.0 mm
04:34 PM 37.9°F3.3°C 33.8°F1.0°C 85% 1.8 mph SE2.9 kmh SE 2.7 mph4.3 kmh 30.07 in1018.3 mb 0.00 in0.0 mm 0.00 in0.0 mm 0.00 in0.0 mm
04:39 PM 37.9°F3.3°C 33.8°F1.0°C 85% 2.5 mph S4.0 kmh S 3.6 mph5.8 kmh 30.07 in1018.3 mb 0.00 in0.0 mm 0.00 in0.0 mm 0.00 in0.0 mm
04:44 PM 37.9°F3.3°C 33.6°F0.9°C 84% 2.7 mph SSE4.3 kmh SSE 3.8 mph6.1 kmh 30.06 in1017.9 mb 0.00 in0.0 mm 0.00 in0.0 mm 0.00 in0.0 mm
04:49 PM 37.9°F3.3°C 33.8°F1.0°C 85% 2.5 mph SSE4.0 kmh SSE 4.5 mph7.2 kmh 30.06 in1017.9 mb 0.00 in0.0 mm 0.00 in0.0 mm 0.00 in0.0 mm
04:54 PM 37.9°F3.3°C 33.6°F0.9°C 84% 2.5 mph SW4.0 kmh SW 3.6 mph5.8 kmh 30.06 in1017.9 mb 0.00 in0.0 mm 0.00 in0.0 mm 0.00 in0.0 mm
04:59 PM 37.9°F3.3°C 33.6°F0.9°C 84% 2.5 mph SSE4.0 kmh SSE 3.1 mph5.0 kmh 30.05 in1017.6 mb 0.00 in0.0 mm 0.00 in0.0 mm 0.00 in0.0 mm
05:04 PM 38.1°F3.4°C 33.8°F1.0°C 84% 2.5 mph SSE4.0 kmh SSE 3.8 mph6.1 kmh 30.05 in1017.6 mb 0.00 in0.0 mm 0.00 in0.0 mm 0.00 in0.0 mm
05:09 PM 38.1°F3.4°C 33.8°F1.0°C 84% 1.3 mph SSE2.1 kmh SSE 1.8 mph2.9 kmh 30.06 in1017.9 mb 0.00 in0.0 mm 0.00 in0.0 mm 0.00 in0.0 mm
05:14 PM 38.1°F3.4°C 33.8°F1.0°C 84% 1.8 mph S2.9 kmh S 2.9 mph4.7 kmh 30.06 in1017.9 mb 0.00 in0.0 mm 0.00 in0.0 mm 0.00 in0.0 mm
05:19 PM 38.1°F3.4°C 34.0°F1.1°C 85% 2.5 mph SW4.0 kmh SW 3.6 mph5.8 kmh 30.06 in1017.9 mb 0.00 in0.0 mm 0.00 in0.0 mm 0.00 in0.0 mm
05:24 PM 38.3°F3.5°C 34.0°F1.1°C 84% 1.1 mph SSE1.8 kmh SSE 2.7 mph4.3 kmh 30.06 in1017.9 mb 0.00 in0.0 mm 0.00 in0.0 mm 0.00 in0.0 mm
05:29 PM 38.3°F3.5°C 34.0°F1.1°C 84% 2.2 mph S3.5 kmh S 3.6 mph5.8 kmh 30.06 in1017.9 mb 0.00 in0.0 mm 0.00 in0.0 mm 0.00 in0.0 mm
05:34 PM 38.3°F3.5°C 34.0°F1.1°C 84% 1.6 mph S2.6 kmh S 2.5 mph4.0 kmh 30.06 in1017.9 mb 0.00 in0.0 mm 0.00 in0.0 mm 0.00 in0.0 mm
05:39 PM 38.3°F3.5°C 34.0°F1.1°C 84% 2.9 mph SSW4.7 kmh SSW 4.5 mph7.2 kmh 30.06 in1017.9 mb 0.00 in0.0 mm 0.00 in0.0 mm 0.00 in0.0 mm
05:44 PM 38.3°F3.5°C 34.0°F1.1°C 84% 2.5 mph S4.0 kmh S 3.4 mph5.5 kmh 30.05 in1017.6 mb 0.00 in0.0 mm 0.00 in0.0 mm 0.00 in0.0 mm
05:49 PM 38.3°F3.5°C 33.3°F0.7°C 82% 2.0 mph S3.2 kmh S 2.7 mph4.3 kmh 30.04 in1017.3 mb 0.00 in0.0 mm 0.00 in0.0 mm 0.00 in0.0 mm
05:54 PM 38.3°F3.5°C 34.0°F1.1°C 84% 2.5 mph S4.0 kmh S 3.1 mph5.0 kmh 30.03 in1016.9 mb 0.00 in0.0 mm 0.00 in0.0 mm 0.00 in0.0 mm
05:59 PM 38.3°F3.5°C 34.0°F1.1°C 84% 2.9 mph SW4.7 kmh SW 6.7 mph10.8 kmh 30.03 in1016.9 mb 0.00 in0.0 mm 0.00 in0.0 mm 0.00 in0.0 mm
06:04 PM 38.3°F3.5°C 33.3°F0.7°C 82% 1.6 mph SE2.6 kmh SE 2.9 mph4.7 kmh 30.03 in1016.9 mb 0.00 in0.0 mm 0.00 in0.0 mm 0.00 in0.0 mm
06:09 PM 38.3°F3.5°C 34.0°F1.1°C 84% 2.5 mph S4.0 kmh S 2.9 mph4.7 kmh 30.03 in1016.9 mb 0.00 in0.0 mm 0.00 in0.0 mm 0.00 in0.0 mm
06:14 PM 38.3°F3.5°C 33.3°F0.7°C 82% 2.9 mph S4.7 kmh S 4.3 mph6.9 kmh 30.02 in1016.6 mb 0.00 in0.0 mm 0.00 in0.0 mm 0.00 in0.0 mm
06:19 PM 38.3°F3.5°C 33.3°F0.7°C 82% 1.6 mph S2.6 kmh S 2.5 mph4.0 kmh 30.02 in1016.6 mb 0.00 in0.0 mm 0.00 in0.0 mm 0.00 in0.0 mm
06:24 PM 38.1°F3.4°C 33.1°F0.6°C 82% 1.8 mph S2.9 kmh S 2.5 mph4.0 kmh 30.02 in1016.6 mb 0.00 in0.0 mm 0.00 in0.0 mm 0.00 in0.0 mm
06:29 PM 38.3°F3.5°C 34.0°F1.1°C 84% 1.1 mph S1.8 kmh S 1.8 mph2.9 kmh 30.01 in1016.3 mb 0.00 in0.0 mm 0.00 in0.0 mm 0.00 in0.0 mm
06:34 PM 38.3°F3.5°C 34.0°F1.1°C 84% 2.0 mph S3.2 kmh S 4.9 mph7.9 kmh 30.01 in1016.3 mb 0.00 in0.0 mm 0.00 in0.0 mm 0.00 in0.0 mm
06:39 PM 38.1°F3.4°C 33.1°F0.6°C 82% 2.2 mph SSE3.5 kmh SSE 2.7 mph4.3 kmh 30.01 in1016.3 mb 0.00 in0.0 mm 0.00 in0.0 mm 0.00 in0.0 mm
06:44 PM 38.1°F3.4°C 33.8°F1.0°C 84% 1.8 mph S2.9 kmh S 2.0 mph3.2 kmh 30.00 in1015.9 mb 0.00 in0.0 mm 0.00 in0.0 mm 0.00 in0.0 mm
06:49 PM 38.3°F3.5°C 34.2°F1.2°C 85% 1.8 mph S2.9 kmh S 2.2 mph3.5 kmh 30.00 in1015.9 mb 0.00 in0.0 mm 0.00 in0.0 mm 0.00 in0.0 mm
06:54 PM 38.3°F3.5°C 34.0°F1.1°C 84% 1.6 mph SSW2.6 kmh SSW 2.0 mph3.2 kmh 30.01 in1016.3 mb 0.00 in0.0 mm 0.00 in0.0 mm 0.00 in0.0 mm
06:59 PM 38.3°F3.5°C 34.0°F1.1°C 84% 2.5 mph SW4.0 kmh SW 5.4 mph8.7 kmh 30.00 in1015.9 mb 0.00 in0.0 mm 0.00 in0.0 mm 0.00 in0.0 mm
07:04 PM 38.3°F3.5°C 34.0°F1.1°C 84% 1.1 mph S1.8 kmh S 1.8 mph2.9 kmh 30.00 in1015.9 mb 0.00 in0.0 mm 0.00 in0.0 mm 0.00 in0.0 mm
07:09 PM 38.3°F3.5°C 34.0°F1.1°C 84% 1.6 mph SSW2.6 kmh SSW 4.7 mph7.6 kmh 30.00 in1015.9 mb 0.00 in0.0 mm 0.00 in0.0 mm 0.00 in0.0 mm
07:14 PM 38.3°F3.5°C 34.0°F1.1°C 84% 2.0 mph S3.2 kmh S 3.8 mph6.1 kmh 29.99 in1015.6 mb 0.00 in0.0 mm 0.00 in0.0 mm 0.00 in0.0 mm
07:19 PM 38.3°F3.5°C 33.3°F0.7°C 82% 1.8 mph SSW2.9 kmh SSW 5.6 mph9.0 kmh 30.00 in1015.9 mb 0.00 in0.0 mm 0.00 in0.0 mm 0.00 in0.0 mm
07:24 PM 38.3°F3.5°C 33.3°F0.7°C 82% 2.7 mph SSW4.3 kmh SSW 6.7 mph10.8 kmh 30.00 in1015.9 mb 0.00 in0.0 mm 0.00 in0.0 mm 0.00 in0.0 mm
07:29 PM 38.5°F3.6°C 33.4°F0.8°C 82% 4.7 mph SW7.6 kmh SW 6.5 mph10.5 kmh 29.99 in1015.6 mb 0.00 in0.0 mm 0.00 in0.0 mm 0.00 in0.0 mm
07:34 PM 38.5°F3.6°C 33.4°F0.8°C 82% 2.7 mph S4.3 kmh S 4.5 mph7.2 kmh 29.98 in1015.2 mb 0.00 in0.0 mm 0.00 in0.0 mm 0.00 in0.0 mm
07:39 PM 38.5°F3.6°C 34.0°F1.1°C 84% 4.3 mph SW6.9 kmh SW 5.6 mph9.0 kmh 29.98 in1015.2 mb 0.00 in0.0 mm 0.00 in0.0 mm 0.00 in0.0 mm
07:44 PM 38.5°F3.6°C 34.0°F1.1°C 84% 2.7 mph SSE4.3 kmh SSE 3.6 mph5.8 kmh 29.98 in1015.2 mb 0.00 in0.0 mm 0.00 in0.0 mm 0.00 in0.0 mm
07:49 PM 38.5°F3.6°C 34.0°F1.1°C 84% 5.8 mph SSW9.3 kmh SSW 8.3 mph13.4 kmh 29.98 in1015.2 mb 0.00 in0.0 mm 0.00 in0.0 mm 0.00 in0.0 mm
07:54 PM 38.5°F3.6°C 34.0°F1.1°C 84% 3.1 mph SW5.0 kmh SW 5.6 mph9.0 kmh 29.98 in1015.2 mb 0.00 in0.0 mm 0.00 in0.0 mm 0.00 in0.0 mm
07:59 PM 38.7°F3.7°C 34.5°F1.4°C 85% 5.1 mph SW8.2 kmh SW 8.3 mph13.4 kmh 29.98 in1015.2 mb 0.00 in0.0 mm 0.00 in0.0 mm 0.00 in0.0 mm
08:04 PM 38.7°F3.7°C 34.5°F1.4°C 85% 1.3 mph SSW2.1 kmh SSW 2.5 mph4.0 kmh 29.98 in1015.2 mb 0.00 in0.0 mm 0.00 in0.0 mm 0.00 in0.0 mm
08:09 PM 38.5°F3.6°C 34.3°F1.3°C 85% 3.1 mph S5.0 kmh S 4.5 mph7.2 kmh 29.98 in1015.2 mb 0.00 in0.0 mm 0.00 in0.0 mm 0.00 in0.0 mm
08:14 PM 38.5°F3.6°C 34.3°F1.3°C 85% 3.8 mph SSW6.1 kmh SSW 6.9 mph11.1 kmh 29.98 in1015.2 mb 0.00 in0.0 mm 0.00 in0.0 mm 0.00 in0.0 mm
08:19 PM 38.7°F3.7°C 34.5°F1.4°C 85% 2.5 mph SSE4.0 kmh SSE 3.6 mph5.8 kmh 29.97 in1014.9 mb 0.00 in0.0 mm 0.00 in0.0 mm 0.00 in0.0 mm
08:24 PM 38.5°F3.6°C 34.3°F1.3°C 85% 4.5 mph S7.2 kmh S 5.8 mph9.3 kmh 29.97 in1014.9 mb 0.00 in0.0 mm 0.00 in0.0 mm 0.00 in0.0 mm
08:29 PM 38.5°F3.6°C 34.3°F1.3°C 85% 1.8 mph SSW2.9 kmh SSW 3.6 mph5.8 kmh 29.97 in1014.9 mb 0.00 in0.0 mm 0.00 in0.0 mm 0.00 in0.0 mm
08:34 PM 38.7°F3.7°C 34.5°F1.4°C 85% 3.8 mph SSW6.1 kmh SSW 7.2 mph11.6 kmh 29.98 in1015.2 mb 0.00 in0.0 mm 0.00 in0.0 mm 0.00 in0.0 mm
08:39 PM 38.5°F3.6°C 34.3°F1.3°C 85% 1.6 mph SW2.6 kmh SW 3.6 mph5.8 kmh 29.98 in1015.2 mb 0.00 in0.0 mm 0.00 in0.0 mm 0.00 in0.0 mm
08:44 PM 38.7°F3.7°C 34.5°F1.4°C 85% 3.6 mph SW5.8 kmh SW 4.9 mph7.9 kmh 29.98 in1015.2 mb 0.00 in0.0 mm 0.00 in0.0 mm 0.00 in0.0 mm
08:49 PM 38.7°F3.7°C 34.5°F1.4°C 85% 3.1 mph SSW5.0 kmh SSW 3.8 mph6.1 kmh 29.98 in1015.2 mb 0.00 in0.0 mm 0.00 in0.0 mm 0.00 in0.0 mm
08:54 PM 38.7°F3.7°C 34.5°F1.4°C 85% 1.8 mph SSE2.9 kmh SSE 4.0 mph6.4 kmh 29.97 in1014.9 mb 0.00 in0.0 mm 0.00 in0.0 mm 0.00 in0.0 mm
08:59 PM 38.7°F3.7°C 34.5°F1.4°C 85% 3.8 mph SSW6.1 kmh SSW 5.4 mph8.7 kmh 29.97 in1014.9 mb 0.00 in0.0 mm 0.00 in0.0 mm 0.00 in0.0 mm
09:04 PM 38.7°F3.7°C 34.9°F1.6°C 86% 3.6 mph SSW5.8 kmh SSW 6.7 mph10.8 kmh 29.97 in1014.9 mb 0.00 in0.0 mm 0.00 in0.0 mm 0.00 in0.0 mm
09:09 PM 38.7°F3.7°C 34.9°F1.6°C 86% 2.5 mph S4.0 kmh S 5.1 mph8.2 kmh 29.97 in1014.9 mb 0.00 in0.0 mm 0.00 in0.0 mm 0.00 in0.0 mm
09:14 PM 38.7°F3.7°C 34.9°F1.6°C 86% 3.4 mph S5.5 kmh S 5.1 mph8.2 kmh 29.98 in1015.2 mb 0.00 in0.0 mm 0.00 in0.0 mm 0.00 in0.0 mm
09:19 PM 38.5°F3.6°C 35.2°F1.8°C 88% 6.7 mph SSW10.8 kmh SSW 10.3 mph16.6 kmh 29.98 in1015.2 mb 0.00 in0.0 mm 0.00 in0.0 mm 0.00 in0.0 mm
09:24 PM 38.7°F3.7°C 35.4°F1.9°C 88% 2.2 mph S3.5 kmh S 4.0 mph6.4 kmh 29.98 in1015.2 mb 0.00 in0.0 mm 0.00 in0.0 mm 0.00 in0.0 mm
09:29 PM 38.5°F3.6°C 35.2°F1.8°C 88% 3.6 mph SW5.8 kmh SW 6.0 mph9.7 kmh 29.98 in1015.2 mb 0.00 in0.0 mm 0.00 in0.0 mm 0.00 in0.0 mm
09:34 PM 38.5°F3.6°C 35.6°F2.0°C 89% 3.6 mph SSW5.8 kmh SSW 5.1 mph8.2 kmh 29.98 in1015.2 mb 0.00 in0.0 mm 0.00 in0.0 mm 0.00 in0.0 mm
09:39 PM 38.5°F3.6°C 35.6°F2.0°C 89% 2.2 mph SSW3.5 kmh SSW 3.4 mph5.5 kmh 29.98 in1015.2 mb 0.00 in0.0 mm 0.00 in0.0 mm 0.00 in0.0 mm
09:44 PM 38.3°F3.5°C 35.4°F1.9°C 89% 3.6 mph S5.8 kmh S 5.6 mph9.0 kmh 29.98 in1015.2 mb 0.00 in0.0 mm 0.00 in0.0 mm 0.00 in0.0 mm
09:49 PM 38.5°F3.6°C 35.8°F2.1°C 90% 4.3 mph SSW6.9 kmh SSW 10.1 mph16.3 kmh 29.98 in1015.2 mb 0.00 in0.0 mm 0.00 in0.0 mm 0.00 in0.0 mm
09:54 PM 38.5°F3.6°C 35.8°F2.1°C 90% 3.1 mph SSW5.0 kmh SSW 4.0 mph6.4 kmh 29.98 in1015.2 mb 0.00 in0.0 mm 0.00 in0.0 mm 0.00 in0.0 mm
09:59 PM 38.5°F3.6°C 35.8°F2.1°C 90% 3.8 mph S6.1 kmh S 11.6 mph18.7 kmh 29.98 in1015.2 mb 0.00 in0.0 mm 0.00 in0.0 mm 0.00 in0.0 mm
10:04 PM 38.5°F3.6°C 35.8°F2.1°C 90% 4.7 mph SW7.6 kmh SW 7.2 mph11.6 kmh 29.98 in1015.2 mb 0.00 in0.0 mm 0.00 in0.0 mm 0.00 in0.0 mm
10:09 PM 38.5°F3.6°C 35.8°F2.1°C 90% 2.2 mph S3.5 kmh S 5.1 mph8.2 kmh 29.97 in1014.9 mb 0.00 in0.0 mm 0.00 in0.0 mm 0.00 in0.0 mm
10:14 PM 38.8°F3.8°C 36.1°F2.3°C 90% 3.8 mph SSW6.1 kmh SSW 5.8 mph9.3 kmh 29.97 in1014.9 mb 0.00 in0.0 mm 0.00 in0.0 mm 0.00 in0.0 mm
10:19 PM 38.8°F3.8°C 36.1°F2.3°C 90% 4.0 mph SSW6.4 kmh SSW 8.3 mph13.4 kmh 29.96 in1014.6 mb 0.00 in0.0 mm 0.00 in0.0 mm 0.00 in0.0 mm
10:24 PM 38.8°F3.8°C 36.1°F2.3°C 90% 4.0 mph SSW6.4 kmh SSW 6.5 mph10.5 kmh 29.96 in1014.6 mb 0.00 in0.0 mm 0.00 in0.0 mm 0.00 in0.0 mm
10:29 PM 39.0°F3.9°C 36.3°F2.4°C 90% 6.3 mph SW10.1 kmh SW 10.5 mph16.9 kmh 29.96 in1014.6 mb 0.00 in0.0 mm 0.00 in0.0 mm 0.00 in0.0 mm
10:34 PM 38.8°F3.8°C 36.1°F2.3°C 90% 3.6 mph SSW5.8 kmh SSW 7.2 mph11.6 kmh 29.95 in1014.2 mb 0.00 in0.0 mm 0.00 in0.0 mm 0.00 in0.0 mm
10:39 PM 38.7°F3.7°C 36.3°F2.4°C 91% 2.2 mph SSW3.5 kmh SSW 3.1 mph5.0 kmh 29.95 in1014.2 mb 0.00 in0.0 mm 0.00 in0.0 mm 0.00 in0.0 mm
10:44 PM 38.7°F3.7°C 36.3°F2.4°C 91% 2.7 mph SW4.3 kmh SW 4.9 mph7.9 kmh 29.95 in1014.2 mb 0.00 in0.0 mm 0.00 in0.0 mm 0.00 in0.0 mm
10:49 PM 38.5°F3.6°C 36.1°F2.3°C 91% 4.5 mph SW7.2 kmh SW 12.8 mph20.6 kmh 29.95 in1014.2 mb 0.01 in0.3 mm 0.12 in3.0 mm 0.01 in0.3 mm
10:54 PM 38.5°F3.6°C 36.1°F2.3°C 91% 4.5 mph SW7.2 kmh SW 9.4 mph15.1 kmh 29.94 in1013.9 mb 0.01 in0.3 mm 0.00 in0.0 mm 0.01 in0.3 mm
10:59 PM 38.5°F3.6°C 36.1°F2.3°C 91% 2.5 mph S4.0 kmh S 4.7 mph7.6 kmh 29.94 in1013.9 mb 0.01 in0.3 mm 0.00 in0.0 mm 0.01 in0.3 mm
11:04 PM 38.5°F3.6°C 36.1°F2.3°C 91% 2.2 mph W3.5 kmh W 5.8 mph9.3 kmh 29.94 in1013.9 mb 0.01 in0.3 mm 0.00 in0.0 mm 0.01 in0.3 mm
11:09 PM 38.3°F3.5°C 36.0°F2.2°C 91% 4.7 mph N7.6 kmh N 5.8 mph9.3 kmh 29.94 in1013.9 mb 0.01 in0.3 mm 0.00 in0.0 mm 0.01 in0.3 mm
11:14 PM 37.0°F2.8°C 34.2°F1.2°C 89% 4.5 mph NNW7.2 kmh NNW 6.9 mph11.1 kmh 29.95 in1014.2 mb 0.01 in0.3 mm 0.00 in0.0 mm 0.01 in0.3 mm
11:19 PM 36.1°F2.3°C 33.3°F0.7°C 89% 2.9 mph N4.7 kmh N 9.8 mph15.8 kmh 29.95 in1014.2 mb 0.01 in0.3 mm 0.00 in0.0 mm 0.01 in0.3 mm
11:24 PM 35.6°F2.0°C 32.9°F0.5°C 90% 2.7 mph N4.3 kmh N 4.3 mph6.9 kmh 29.94 in1013.9 mb 0.01 in0.3 mm 0.00 in0.0 mm 0.01 in0.3 mm
11:29 PM 35.4°F1.9°C 32.7°F0.4°C 90% 2.0 mph NNW3.2 kmh NNW 3.6 mph5.8 kmh 29.95 in1014.2 mb 0.01 in0.3 mm 0.00 in0.0 mm 0.01 in0.3 mm
11:34 PM 35.4°F1.9°C 33.1°F0.6°C 91% 2.2 mph 3.5 kmh 4.3 mph6.9 kmh 29.95 in1014.2 mb 0.01 in0.3 mm 0.00 in0.0 mm 0.01 in0.3 mm
11:39 PM 35.2°F1.8°C 32.9°F0.5°C 91% 2.9 mph NNW4.7 kmh NNW 7.6 mph12.2 kmh 29.95 in1014.2 mb 0.01 in0.3 mm 0.00 in0.0 mm 0.01 in0.3 mm
11:44 PM 35.1°F1.7°C 32.7°F0.4°C 91% 3.8 mph NNW6.1 kmh NNW 6.9 mph11.1 kmh 29.95 in1014.2 mb 0.00 in0.0 mm 0.00 in0.0 mm 0.01 in0.3 mm
11:49 PM 34.9°F1.6°C 33.1°F0.6°C 93% 6.3 mph NW10.1 kmh NW 12.3 mph19.8 kmh 29.96 in1014.6 mb 0.00 in0.0 mm 0.00 in0.0 mm 0.01 in0.3 mm
11:54 PM 34.9°F1.6°C 33.1°F0.6°C 93% 5.1 mph NW8.2 kmh NW 8.7 mph14.0 kmh 29.97 in1014.9 mb 0.00 in0.0 mm 0.00 in0.0 mm 0.01 in0.3 mm
11:59 PM 34.9°F1.6°C 32.5°F0.3°C 91% 3.4 mph WNW5.5 kmh WNW 9.4 mph15.1 kmh 29.97 in1014.9 mb 0.00 in0.0 mm 0.00 in0.0 mm 0.01 in0.3 mm